Pino Ladra — ECGJ — position and weather

sailwx.info

Track history (hours):
 
Tides and Currents Weather Stations Pressure Air Temp Water Temp Dewpoint Dewpoint Depression Visibility Wind Speed Wind Dir Waves Ship Positions

Pino Ladra

Last reported at 2016-May-03 22:21 UTC. Time now 2016-May-04 13:40 UTC.
Position N 43°55' W 007°27'.

Length 32 m; draft 5 m.

Type: Fishing. MMSI: 224134550.

Date/timePositionNaut miles runAvg speedWind from/ knotsBaromVisibWave heightAir tempDewpointWater temp
2016-May-03 22:21N 43°55' W 007°27'8 9.2
2016-May-03 21:28N 43°48' W 007°24'2 0.7
2016-May-03 18:30N 43°46' W 007°25'9 8.7
2016-May-03 17:26N 43°54' W 007°32'1 0.0
2016-May-01 23:18N 43°53' W 007°32'7 9.8
2016-May-01 22:33N 43°46' W 007°34'5 5.1
2016-May-01 21:33N 43°41' W 007°36'0 0.0
2016-Apr-30 09:24N 43°41' W 007°36'0 0.0
2016-Apr-30 08:33N 43°41' W 007°36'0 0.0
2016-Apr-30 07:33N 43°41' W 007°36'0 0.0
2016-Apr-29 21:14N 43°41' W 007°36'0 0.3
2016-Apr-29 20:34N 43°41' W 007°36'2 2.0
2016-Apr-29 19:33N 43°43' W 007°35'1010.0
2016-Apr-29 18:33N 43°52' W 007°31'  
Track history (hours):
 
Tides and Currents Weather Stations Pressure Air Temp Water Temp Dewpoint Dewpoint Depression Visibility Wind Speed Wind Dir Waves Ship Positions

Pino Ladra

Last reported at 2016-May-03 22:21 UTC. Time now 2016-May-04 13:40 UTC.
Position N 43°55' W 007°27'.

Length 32 m; draft 5 m.

Type: Fishing. MMSI: 224134550.

Date/timePositionNaut miles runAvg speedWind from/ knotsBaromVisibWave heightAir tempDewpointWater temp
2016-May-03 22:21N 43°55' W 007°27'8 9.2
2016-May-03 21:28N 43°48' W 007°24'2 0.7
2016-May-03 18:30N 43°46' W 007°25'9 8.7
2016-May-03 17:26N 43°54' W 007°32'1 0.0
2016-May-01 23:18N 43°53' W 007°32'7 9.8
2016-May-01 22:33N 43°46' W 007°34'5 5.1
2016-May-01 21:33N 43°41' W 007°36'0 0.0
2016-Apr-30 09:24N 43°41' W 007°36'0 0.0
2016-Apr-30 08:33N 43°41' W 007°36'0 0.0
2016-Apr-30 07:33N 43°41' W 007°36'0 0.0
2016-Apr-29 21:14N 43°41' W 007°36'0 0.3
2016-Apr-29 20:34N 43°41' W 007°36'2 2.0
2016-Apr-29 19:33N 43°43' W 007°35'1010.0
2016-Apr-29 18:33N 43°52' W 007°31'  

Dump ship's entire track history